Time;durP1;ratioP1;P1;durP2;ratioP2;P2;SDS_P1;SDS_P2;PMS_P1;PMS_P2;Temp;Humidity;BMP_temperature;BMP_pressure;BME280_temperature;BME280_humidity;BME280_pressure;Samples;Min_cycle;Max_cycle;Signal;HPM_P1;HPM_P2
2022/02/23 00:00:39;;;;;;;14.77;2.95;;;;;;;5.91;92.53;102224.84;5053910;28;20021;-73
2022/02/23 00:03:05;;;;;;;15.32;2.63;;;;;;;6.00;92.21;102216.94;5053576;28;20028;-76
2022/02/23 00:05:30;;;;;;;16.38;3.95;;;;;;;5.97;92.02;102223.94;5053974;28;20025;-76
2022/02/23 00:07:55;;;;;;;16.58;2.75;;;;;;;6.01;92.33;102228.31;5053120;28;20025;-76
2022/02/23 00:10:21;;;;;;;16.55;2.70;;;;;;;6.01;92.34;102223.06;5053753;28;20040;-76
2022/02/23 00:12:46;;;;;;;13.13;2.35;;;;;;;5.97;92.42;102221.31;5053901;28;20070;-76
2022/02/23 00:15:11;;;;;;;19.50;2.75;;;;;;;6.02;91.90;102235.34;5053051;28;20029;-73
2022/02/23 00:17:37;;;;;;;15.18;2.65;;;;;;;5.98;91.49;102231.84;5053179;28;20033;-75
2022/02/23 00:20:04;;;;;;;15.18;2.88;;;;;;;5.90;92.33;102244.13;5053509;28;20033;-75
2022/02/23 00:22:32;;;;;;;16.55;2.88;;;;;;;5.82;92.94;102248.50;5053061;28;20032;-76
2022/02/23 00:24:57;;;;;;;11.32;2.53;;;;;;;5.77;92.52;102242.38;5052923;28;20021;-75
2022/02/23 00:27:23;;;;;;;20.20;3.42;;;;;;;5.72;92.55;102231.91;5053260;28;20413;-74
2022/02/23 00:29:49;;;;;;;13.80;2.70;;;;;;;5.79;92.33;102265.16;5053055;28;20451;-75
2022/02/23 00:32:14;;;;;;;22.70;4.07;;;;;;;5.76;92.97;102269.56;5053376;28;20025;-76
2022/02/23 00:34:40;;;;;;;11.45;2.50;;;;;;;5.71;92.53;102274.81;5052962;28;20116;-75
2022/02/23 00:37:05;;;;;;;17.25;2.97;;;;;;;5.69;93.38;102280.09;5052399;28;20024;-75
2022/02/23 00:39:31;;;;;;;12.43;2.50;;;;;;;5.69;93.06;102273.94;5053009;28;20029;-75
2022/02/23 00:41:56;;;;;;;19.38;2.80;;;;;;;5.72;93.52;102273.97;5052974;28;20358;-76
2022/02/23 00:44:21;;;;;;;12.48;2.47;;;;;;;5.74;92.93;102273.06;5053195;28;20025;-76
2022/02/23 00:46:47;;;;;;;10.43;2.28;;;;;;;5.82;92.51;102261.66;5052960;28;20029;-75
2022/02/23 00:49:12;;;;;;;13.18;2.88;;;;;;;5.77;91.90;102260.78;5052854;28;20033;-76
2022/02/23 00:51:38;;;;;;;16.65;2.80;;;;;;;5.83;92.65;102271.28;5052302;28;20028;-74
2022/02/23 00:54:03;;;;;;;16.05;2.47;;;;;;;5.78;92.32;102263.44;5052667;28;20775;-75
2022/02/23 00:56:29;;;;;;;13.80;2.78;;;;;;;5.73;91.82;102276.56;5052093;28;20056;-76
2022/02/23 00:58:54;;;;;;;16.80;2.80;;;;;;;5.81;91.19;102262.56;5053028;28;20481;-77
2022/02/23 01:01:20;;;;;;;12.63;2.88;;;;;;;5.80;91.44;102276.56;5052573;28;20127;-77
2022/02/23 01:03:45;;;;;;;15.07;2.28;;;;;;;5.80;91.17;102266.91;5052994;28;20021;-77
2022/02/23 01:06:11;;;;;;;13.75;2.40;;;;;;;5.80;91.64;102273.94;5052532;28;20092;-75
2022/02/23 01:08:36;;;;;;;13.10;2.40;;;;;;;5.75;91.58;102281.81;5052309;28;20370;-77
2022/02/23 01:11:03;;;;;;;10.20;1.98;;;;;;;5.65;92.61;102274.84;5052232;28;20037;-76
2022/02/23 01:13:29;;;;;;;17.42;3.08;;;;;;;5.60;92.78;102290.63;5052746;28;20026;-76
2022/02/23 01:15:54;;;;;;;16.50;2.40;;;;;;;5.60;92.92;102284.47;5052729;28;20082;-74
2022/02/23 01:18:20;;;;;;;15.38;2.45;;;;;;;5.58;93.93;102300.25;5034442;28;20033;-74
2022/02/23 01:20:46;;;;;;;17.58;2.95;;;;;;;5.57;93.31;102293.22;5052586;28;20026;-75
2022/02/23 01:23:11;;;;;;;15.80;2.65;;;;;;;5.60;92.75;102297.63;5052407;28;20040;-74
2022/02/23 01:25:37;;;;;;;12.10;2.15;;;;;;;5.56;93.16;102297.63;5052224;28;20026;-74
2022/02/23 01:28:05;;;;;;;17.33;2.72;;;;;;;5.55;93.27;102301.13;5052072;28;20120;-74
2022/02/23 01:30:31;;;;;;;19.27;2.80;;;;;;;5.54;94.22;102291.47;5052897;28;20033;-74
2022/02/23 01:32:57;;;;;;;20.90;2.60;;;;;;;5.61;94.05;102304.63;5052293;28;20025;-74
2022/02/23 01:35:23;;;;;;;16.65;3.25;;;;;;;5.54;94.07;102302.00;5052267;28;20120;-75
2022/02/23 01:37:49;;;;;;;14.30;2.58;;;;;;;5.54;94.78;102314.28;5051914;28;20045;-77
2022/02/23 01:40:14;;;;;;;13.25;2.65;;;;;;;5.55;95.83;102318.63;5052210;28;20067;-75
2022/02/23 01:42:40;;;;;;;20.08;2.90;;;;;;;5.56;95.16;102323.91;5052195;28;20057;-77
2022/02/23 01:45:07;;;;;;;14.75;2.88;;;;;;;5.51;95.12;102323.03;5052435;28;20098;-74
2022/02/23 01:47:32;;;;;;;16.15;2.70;;;;;;;5.49;94.77;102318.66;5052341;28;20028;-77
2022/02/23 01:49:58;;;;;;;16.02;2.58;;;;;;;5.47;95.55;102312.50;5052428;28;20025;-75
2022/02/23 01:52:25;;;;;;;12.35;2.15;;;;;;;5.53;95.74;102330.91;5052337;28;20028;-76
2022/02/23 01:54:54;;;;;;;11.88;2.65;;;;;;;5.53;96.11;102325.66;5051832;28;20110;-76
2022/02/23 01:57:20;;;;;;;12.82;3.17;;;;;;;5.55;94.82;102335.28;5052195;28;20033;-77
2022/02/23 01:59:48;;;;;;;20.17;3.22;;;;;;;5.57;95.58;102330.88;5052353;28;20132;-75
2022/02/23 02:02:13;;;;;;;16.58;3.33;;;;;;;5.51;95.14;102336.16;5052644;28;20021;-76
2022/02/23 02:04:38;;;;;;;16.95;2.72;;;;;;;5.44;96.01;102339.66;5055903;28;20039;-75
2022/02/23 02:07:04;;;;;;;16.35;2.88;;;;;;;5.36;95.91;102339.66;5056044;28;20090;-74
2022/02/23 02:09:29;;;;;;;14.32;3.13;;;;;;;5.38;96.49;102358.03;5055899;28;20021;-74
2022/02/23 02:11:55;;;;;;;16.52;2.80;;;;;;;5.37;96.40;102351.91;5055532;28;20369;-74
2022/02/23 02:14:21;;;;;;;22.23;2.88;;;;;;;5.35;96.92;102352.78;5055826;28;20442;-74
2022/02/23 02:16:46;;;;;;;13.10;2.95;;;;;;;5.33;96.81;102360.66;5056088;28;20472;-74
2022/02/23 02:19:11;;;;;;;13.35;3.25;;;;;;;5.34;97.26;102359.78;5055496;28;20044;-72
2022/02/23 02:21:51;;;;;;;19.25;2.88;;;;;;;5.34;97.09;102361.53;5055267;28;20037;-76
2022/02/23 02:24:16;;;;;;;13.73;2.20;;;;;;;5.38;97.65;102351.06;5055705;28;20057;-76
2022/02/23 02:26:42;;;;;;;12.52;2.10;;;;;;;5.36;97.13;102355.41;5054906;28;20060;-74
2022/02/23 02:29:07;;;;;;;13.18;2.92;;;;;;;5.34;96.85;102357.16;5055810;28;20025;-76
2022/02/23 02:31:32;;;;;;;16.38;2.45;;;;;;;5.33;98.02;102355.41;5055237;28;20037;-77
2022/02/23 02:33:59;;;;;;;16.33;2.42;;;;;;;5.33;96.68;102355.41;5055627;28;20040;-74
2022/02/23 02:36:24;;;;;;;9.57;2.90;;;;;;;5.25;96.79;102359.75;5054957;28;20507;-74
2022/02/23 02:38:50;;;;;;;13.02;2.72;;;;;;;5.25;97.62;102355.38;5055505;28;20072;-77
2022/02/23 02:41:15;;;;;;;13.15;2.90;;;;;;;5.23;97.57;102354.50;5054621;28;20033;-74
2022/02/23 02:43:40;;;;;;;18.58;2.97;;;;;;;5.18;98.03;102352.75;5055405;28;20037;-74
2022/02/23 02:46:06;;;;;;;16.27;2.58;;;;;;;5.16;98.18;102355.38;5054938;28;20125;-74
2022/02/23 02:48:31;;;;;;;10.88;2.17;;;;;;;5.18;97.89;102361.50;5055366;28;20032;-76
2022/02/23 02:50:56;;;;;;;14.07;2.78;;;;;;;5.14;98.09;102364.13;5054810;28;20017;-76
2022/02/23 02:53:22;;;;;;;15.07;2.92;;;;;;;5.09;98.41;102370.25;5055223;28;20033;-74
2022/02/23 02:55:47;;;;;;;15.35;3.22;;;;;;;5.05;99.02;102362.34;5055052;28;20043;-77
2022/02/23 02:58:13;;;;;;;15.00;2.50;;;;;;;4.98;99.16;102364.06;5054255;28;20112;-74
2022/02/23 03:00:39;;;;;;;18.25;3.30;;;;;;;4.91;98.93;102365.81;5054895;28;20070;-76
2022/02/23 03:03:04;;;;;;;17.77;3.00;;;;;;;4.89;100.00;102375.41;5054871;28;20029;-75
2022/02/23 03:05:31;;;;;;;14.75;2.80;;;;;;;4.86;100.00;102374.53;5054198;28;20028;-74
2022/02/23 03:07:57;;;;;;;15.40;2.90;;;;;;;4.74;99.86;102370.13;5053818;28;20029;-75
2022/02/23 03:10:22;;;;;;;14.38;2.70;;;;;;;4.65;100.00;102367.47;5054505;28;20029;-74
2022/02/23 03:12:48;;;;;;;17.02;2.70;;;;;;;4.66;100.00;102372.72;5054589;28;20055;-76
2022/02/23 03:15:13;;;;;;;18.88;3.10;;;;;;;4.71;100.00;102380.63;5054213;28;20067;-76
2022/02/23 03:17:38;;;;;;;19.80;2.95;;;;;;;4.73;100.00;102386.72;5053934;28;20025;-76
2022/02/23 03:20:05;;;;;;;13.65;3.13;;;;;;;4.74;100.00;102383.25;5054716;28;20080;-76
2022/02/23 03:22:30;;;;;;;18.27;3.03;;;;;;;4.73;100.00;102387.63;5054614;28;20025;-76
2022/02/23 03:24:56;;;;;;;19.45;3.45;;;;;;;4.79;100.00;102389.38;5054638;28;20039;-78
2022/02/23 03:27:22;;;;;;;11.40;2.30;;;;;;;4.86;100.00;102395.53;5053901;28;20464;-74
2022/02/23 03:29:47;;;;;;;17.90;2.80;;;;;;;4.90;100.00;102402.56;5054218;28;20104;-77
2022/02/23 03:32:13;;;;;;;15.38;2.55;;;;;;;4.94;100.00;102396.44;5054489;28;20052;-76
2022/02/23 03:34:39;;;;;;;22.88;2.70;;;;;;;4.96;100.00;102406.94;5054349;28;20054;-75
2022/02/23 03:37:04;;;;;;;19.20;3.13;;;;;;;4.98;100.00;102398.22;5053979;28;20423;-76
2022/02/23 03:39:29;;;;;;;23.40;3.30;;;;;;;4.96;100.00;102399.06;5053792;28;20040;-76
2022/02/23 03:41:55;;;;;;;19.98;3.10;;;;;;;4.91;100.00;102397.31;5054274;28;20064;-76
2022/02/23 03:44:20;;;;;;;11.75;2.63;;;;;;;4.97;100.00;102391.19;5053923;28;20044;-77
2022/02/23 03:46:45;;;;;;;20.30;3.00;;;;;;;4.92;100.00;102399.06;5054011;28;20122;-76
2022/02/23 03:49:11;;;;;;;15.77;2.85;;;;;;;4.83;100.00;102399.00;5053624;28;20104;-73
2022/02/23 03:51:36;;;;;;;15.85;3.03;;;;;;;4.78;100.00;102398.13;5054166;28;20059;-76
2022/02/23 03:54:01;;;;;;;21.30;2.78;;;;;;;4.73;100.00;102406.00;5054043;28;20456;-76
2022/02/23 03:56:39;;;;;;;16.17;2.83;;;;;;;4.65;100.00;102412.94;5053908;28;20033;-76
2022/02/23 03:59:08;;;;;;;15.95;2.88;;;;;;;4.61;100.00;102413.78;5052977;28;20047;-76
2022/02/23 04:01:33;;;;;;;13.55;2.63;;;;;;;4.61;100.00;102408.53;5052764;28;20025;-73
2022/02/23 04:04:03;;;;;;;10.70;2.40;;;;;;;4.62;100.00;102414.66;5053884;28;20384;-74
2022/02/23 04:06:30;;;;;;;16.00;2.65;;;;;;;4.61;100.00;102423.41;5053725;28;20078;-76
2022/02/23 04:08:55;;;;;;;16.33;3.38;;;;;;;4.55;100.00;102416.38;5053319;28;20033;-74
2022/02/23 04:11:21;;;;;;;19.85;2.85;;;;;;;4.51;100.00;102418.09;5053389;28;20469;-76
2022/02/23 04:13:46;;;;;;;22.58;3.28;;;;;;;4.47;100.00;102425.97;5053324;28;20060;-76
2022/02/23 04:16:11;;;;;;;15.05;2.80;;;;;;;4.45;100.00;102427.69;5053370;28;20112;-74
2022/02/23 04:18:37;;;;;;;13.85;2.60;;;;;;;4.43;100.00;102423.31;5053261;28;20108;-76
2022/02/23 04:21:04;;;;;;;14.23;2.65;;;;;;;4.45;100.00;102427.69;5052935;28;20052;-76
2022/02/23 04:23:29;;;;;;;15.48;2.80;;;;;;;4.37;100.00;102438.13;5053724;28;20483;-76
2022/02/23 04:25:54;;;;;;;12.30;2.30;;;;;;;4.31;100.00;102435.47;5053353;28;20108;-75
2022/02/23 04:28:21;;;;;;;13.00;2.28;;;;;;;4.26;100.00;102436.31;5053526;28;20029;-74
2022/02/23 04:30:46;;;;;;;16.15;2.40;;;;;;;4.23;100.00;102430.16;5052905;28;20029;-74
2022/02/23 04:33:11;;;;;;;11.40;3.00;;;;;;;4.19;100.00;102445.00;5052972;28;20484;-73
2022/02/23 04:35:37;;;;;;;14.57;2.80;;;;;;;4.18;100.00;102434.50;5053176;28;20028;-75
2022/02/23 04:38:02;;;;;;;20.67;2.88;;;;;;;4.19;100.00;102431.88;5056521;28;20114;-74
2022/02/23 04:40:27;;;;;;;19.55;3.00;;;;;;;4.18;100.00;102437.13;5064105;28;20041;-75
2022/02/23 04:42:53;;;;;;;18.20;2.83;;;;;;;4.18;100.00;102439.75;5054348;28;20029;-74
2022/02/23 04:45:18;;;;;;;18.42;2.95;;;;;;;4.19;100.00;102436.25;5052764;28;20083;-75
2022/02/23 04:47:43;;;;;;;20.63;2.70;;;;;;;4.22;100.00;102446.75;5053262;28;20021;-76
2022/02/23 04:50:09;;;;;;;21.38;3.20;;;;;;;4.20;100.00;102446.75;5052714;28;20116;-76
2022/02/23 04:52:34;;;;;;;17.25;2.80;;;;;;;4.22;100.00;102441.50;5054113;28;20135;-74
2022/02/23 04:55:00;;;;;;;14.93;2.95;;;;;;;4.23;100.00;102438.03;5050567;28;20033;-76
2022/02/23 04:57:25;;;;;;;16.38;2.83;;;;;;;4.20;100.00;102440.63;5052932;28;20491;-73
2022/02/23 04:59:51;;;;;;;14.60;2.85;;;;;;;4.18;100.00;102439.75;5052944;28;20029;-74
2022/02/23 05:02:16;;;;;;;13.90;3.38;;;;;;;4.20;100.00;102438.88;5051807;28;20040;-75
2022/02/23 05:04:41;;;;;;;16.92;2.70;;;;;;;4.21;100.00;102445.88;5053862;28;20039;-75
2022/02/23 05:07:07;;;;;;;15.43;2.75;;;;;;;4.21;100.00;102447.66;5052753;28;20051;-74
2022/02/23 05:09:32;;;;;;;23.17;3.20;;;;;;;4.21;100.00;102455.50;5052751;28;20385;-74
2022/02/23 05:11:57;;;;;;;20.33;4.85;;;;;;;4.19;100.00;102452.00;5052745;28;20357;-75
2022/02/23 05:14:23;;;;;;;16.20;3.00;;;;;;;4.19;100.00;102446.75;5053431;28;20118;-76
2022/02/23 05:16:48;;;;;;;19.65;3.17;;;;;;;4.19;100.00;102455.47;5051987;28;20031;-76
2022/02/23 05:19:14;;;;;;;15.27;3.30;;;;;;;4.17;100.00;102459.84;5052754;28;20025;-73
2022/02/23 05:21:39;;;;;;;18.48;3.15;;;;;;;4.18;100.00;102468.59;5052462;28;20052;-74
2022/02/23 05:24:05;;;;;;;13.15;2.70;;;;;;;4.19;100.00;102458.09;5052739;28;20064;-76
2022/02/23 05:26:30;;;;;;;15.10;3.35;;;;;;;4.17;100.00;102461.56;5053623;28;20064;-75
2022/02/23 05:28:55;;;;;;;26.20;3.35;;;;;;;4.17;100.00;102456.34;5052540;28;20484;-74
2022/02/23 05:31:20;;;;;;;21.40;3.28;;;;;;;4.19;100.00;102465.97;5052268;28;20090;-76
2022/02/23 05:33:46;;;;;;;17.15;3.25;;;;;;;4.16;100.00;102468.56;5052037;28;20028;-74
2022/02/23 05:36:11;;;;;;;20.13;3.33;;;;;;;4.10;100.00;102474.66;5053483;28;20029;-74
2022/02/23 05:38:36;;;;;;;19.40;3.45;;;;;;;4.04;100.00;102466.75;5054974;28;20089;-74
2022/02/23 05:41:03;;;;;;;15.52;2.85;;;;;;;4.03;100.00;102475.47;5056187;28;20032;-74
2022/02/23 05:43:29;;;;;;;17.67;3.28;;;;;;;3.98;100.00;102474.53;5056462;28;20025;-73
2022/02/23 05:45:54;;;;;;;15.90;3.45;;;;;;;3.93;100.00;102476.25;5055987;28;20029;-76
2022/02/23 05:48:20;;;;;;;21.08;3.17;;;;;;;3.88;100.00;102470.94;5056556;28;20029;-76
2022/02/23 05:50:46;;;;;;;18.73;3.85;;;;;;;3.82;100.00;102483.13;5055825;28;20025;-74
2022/02/23 05:53:11;;;;;;;20.83;3.63;;;;;;;3.77;100.00;102478.72;5056167;28;20032;-74
2022/02/23 05:55:36;;;;;;;15.57;3.40;;;;;;;3.69;100.00;102477.75;5056130;28;20079;-75
2022/02/23 05:58:02;;;;;;;18.65;3.60;;;;;;;3.65;100.00;102482.97;5055853;28;20029;-76
2022/02/23 06:00:27;;;;;;;20.92;3.85;;;;;;;3.59;100.00;102476.78;5055669;28;20533;-73
2022/02/23 06:02:52;;;;;;;17.92;3.42;;;;;;;3.56;100.00;102478.50;5055468;28;20550;-76
2022/02/23 06:05:18;;;;;;;21.98;3.45;;;;;;;3.49;100.00;102480.19;5055732;28;20032;-73
2022/02/23 06:07:43;;;;;;;19.65;3.50;;;;;;;3.44;100.00;102487.97;5055664;28;20055;-74
2022/02/23 06:10:09;;;;;;;17.92;3.25;;;;;;;3.39;100.00;102486.16;5052654;28;20487;-73
2022/02/23 06:12:34;;;;;;;14.65;3.00;;;;;;;3.36;100.00;102484.38;5055058;28;20045;-74
2022/02/23 06:14:59;;;;;;;14.52;3.20;;;;;;;3.34;100.00;102482.59;5055502;28;20033;-74
2022/02/23 06:17:25;;;;;;;12.80;3.80;;;;;;;3.31;100.00;102475.59;5055645;28;20029;-74
2022/02/23 06:19:50;;;;;;;14.65;3.33;;;;;;;3.27;100.00;102477.31;5053844;28;20109;-76
2022/02/23 06:22:16;;;;;;;21.05;3.83;;;;;;;3.27;100.00;102484.28;5055569;28;20021;-73
2022/02/23 06:24:41;;;;;;;16.92;3.97;;;;;;;3.26;100.00;102477.28;5055577;28;20036;-75
2022/02/23 06:27:06;;;;;;;19.52;3.58;;;;;;;3.25;100.00;102475.53;5055545;28;20032;-76
2022/02/23 06:29:32;;;;;;;26.25;3.50;;;;;;;3.27;100.00;102479.94;5055221;28;20078;-75
2022/02/23 06:32:02;;;;;;;20.95;3.42;;;;;;;3.29;100.00;102479.94;5055129;28;20112;-76
2022/02/23 06:34:28;;;;;;;17.85;3.00;;;;;;;3.25;100.00;102481.63;5055180;28;20021;-74
2022/02/23 06:36:53;;;;;;;17.85;3.85;;;;;;;3.23;100.00;102485.97;5053978;28;20031;-76
2022/02/23 06:39:20;;;;;;;18.38;3.80;;;;;;;3.26;100.00;102490.38;5049954;28;20048;-75
2022/02/23 06:41:45;;;;;;;13.60;3.65;;;;;;;3.25;100.00;102486.00;5054810;28;20057;-74
2022/02/23 06:44:11;;;;;;;21.73;3.67;;;;;;;3.26;100.00;102493.88;5035433;28;20057;-76
2022/02/23 06:46:36;;;;;;;19.08;3.30;;;;;;;3.32;100.00;102494.81;5035359;28;20040;-76
2022/02/23 06:49:01;;;;;;;21.25;3.72;;;;;;;3.35;100.00;102490.50;5033501;28;20469;-76
2022/02/23 06:51:27;;;;;;;21.85;4.40;;;;;;;3.37;100.00;102485.28;5050315;28;20060;-74
2022/02/23 06:53:52;;;;;;;16.02;3.80;;;;;;;3.38;100.00;102487.91;5055097;28;20455;-74
2022/02/23 06:56:17;;;;;;;24.98;4.78;;;;;;;3.39;100.00;102484.44;5054955;28;20037;-73
2022/02/23 06:58:48;;;;;;;19.10;3.90;;;;;;;3.39;100.00;102481.81;5045041;28;20024;-73
2022/02/23 07:01:19;;;;;;;20.17;4.55;;;;;;;3.41;100.00;102484.44;5046947;28;20047;-74
2022/02/23 07:03:46;;;;;;;23.70;3.88;;;;;;;3.43;100.00;102480.97;5036891;28;20021;-72
2022/02/23 07:06:12;;;;;;;14.15;3.40;;;;;;;3.47;100.00;102478.41;5044788;28;20028;-74
2022/02/23 07:08:43;;;;;;;21.52;3.85;;;;;;;3.50;100.00;102481.91;5034933;28;20025;-77
2022/02/23 07:11:08;;;;;;;22.73;4.10;;;;;;;3.54;100.00;102481.09;5036828;28;20112;-74
2022/02/23 07:13:33;;;;;;;17.27;3.50;;;;;;;3.55;100.00;102493.31;5053853;28;20097;-74
2022/02/23 07:15:59;;;;;;;16.52;3.95;;;;;;;3.60;100.00;102488.13;5051807;28;20459;-72
2022/02/23 07:18:24;;;;;;;24.48;3.78;;;;;;;3.61;100.00;102488.16;5054136;28;20027;-73
2022/02/23 07:20:50;;;;;;;16.80;4.35;;;;;;;3.64;100.00;102492.53;5053898;28;20033;-74
2022/02/23 07:23:15;;;;;;;15.68;3.25;;;;;;;3.67;100.00;102492.59;5053703;28;20036;-73
2022/02/23 07:25:40;;;;;;;20.15;4.25;;;;;;;3.72;100.00;102490.00;5053917;28;20437;-70
2022/02/23 07:28:06;;;;;;;22.00;4.15;;;;;;;3.74;100.00;102491.78;5053495;28;20025;-71
2022/02/23 07:30:31;;;;;;;18.13;3.80;;;;;;;3.82;100.00;102491.00;5053998;28;20124;-70
2022/02/23 07:32:57;;;;;;;22.60;4.32;;;;;;;3.88;100.00;102498.91;5053586;28;20025;-73
2022/02/23 07:35:22;;;;;;;20.23;4.20;;;;;;;3.95;100.00;102498.09;5052059;28;20492;-74
2022/02/23 07:37:52;;;;;;;19.92;4.55;;;;;;;4.04;100.00;102497.31;5052372;28;20159;-71
2022/02/23 07:40:20;;;;;;;17.83;4.00;;;;;;;4.08;100.00;102506.97;5039267;28;20111;-73
2022/02/23 07:42:49;;;;;;;19.00;3.80;;;;;;;4.13;100.00;102497.41;5040918;28;20021;-73
2022/02/23 07:45:14;;;;;;;27.60;3.78;;;;;;;4.23;100.00;102494.00;5051618;28;20055;-73
2022/02/23 07:47:40;;;;;;;20.02;3.45;;;;;;;4.29;100.00;102495.78;5053159;28;20461;-73
2022/02/23 07:50:11;;;;;;;21.50;3.75;;;;;;;4.35;100.00;102508.94;5053063;28;20033;-73
2022/02/23 07:52:37;;;;;;;19.42;2.90;;;;;;;4.47;100.00;102504.66;5035644;28;20025;-73
2022/02/23 07:55:03;;;;;;;15.65;3.47;;;;;;;4.53;100.00;102507.34;5042941;28;20040;-72
2022/02/23 07:57:28;;;;;;;14.48;3.58;;;;;;;4.54;100.00;102507.34;5033345;28;20075;-73
2022/02/23 07:59:54;;;;;;;17.52;3.70;;;;;;;4.62;100.00;102510.00;5026881;28;20033;-73
2022/02/23 08:02:20;;;;;;;22.98;4.15;;;;;;;4.67;100.00;102507.44;5053059;28;20080;-74
2022/02/23 08:04:51;;;;;;;25.88;3.35;;;;;;;4.73;100.00;102508.34;5052285;28;20063;-74
2022/02/23 08:07:17;;;;;;;14.55;3.30;;;;;;;4.83;100.00;102505.75;5049564;28;20048;-74
2022/02/23 08:09:42;;;;;;;19.65;3.38;;;;;;;4.92;100.00;102500.56;5052570;28;20413;-74
2022/02/23 08:12:11;;;;;;;18.13;3.20;;;;;;;4.98;100.00;102497.97;5053019;28;20377;-74
2022/02/23 08:14:36;;;;;;;21.15;3.88;;;;;;;5.05;100.00;102502.41;5049575;28;20131;-74
2022/02/23 08:19:47;;;;;;;15.18;3.03;;;;;;;5.16;100.00;102507.69;5042699;28;20175;-76
2022/02/23 08:22:14;;;;;;;21.50;3.95;;;;;;;5.24;100.00;102494.59;5052633;28;20029;-74
2022/02/23 08:24:41;;;;;;;22.30;3.65;;;;;;;5.31;100.00;102496.38;5052299;28;20040;-73
2022/02/23 08:27:08;;;;;;;14.98;3.40;;;;;;;5.38;100.00;102495.53;5052063;28;20028;-73
2022/02/23 08:29:34;;;;;;;15.35;3.15;;;;;;;5.47;100.00;102501.69;5052783;28;20033;-73
2022/02/23 08:32:01;;;;;;;19.17;3.47;;;;;;;5.56;100.00;102485.94;5048523;28;20437;-72
2022/02/23 08:34:26;;;;;;;19.45;3.95;;;;;;;5.70;100.00;102492.13;5052692;28;20078;-73
2022/02/23 08:36:52;;;;;;;14.68;3.00;;;;;;;5.80;100.00;102493.00;5052052;28;20032;-73
2022/02/23 08:39:17;;;;;;;12.45;3.20;;;;;;;5.94;100.00;102487.75;5047514;28;20524;-74
2022/02/23 08:41:44;;;;;;;21.67;3.22;;;;;;;6.06;100.00;102486.91;5052998;28;20036;-75
2022/02/23 08:44:11;;;;;;;16.35;3.28;;;;;;;6.17;100.00;102489.56;5052596;28;20112;-76
2022/02/23 08:46:38;;;;;;;16.30;3.92;;;;;;;6.26;100.00;102486.94;5052122;28;20120;-74
2022/02/23 08:49:05;;;;;;;20.90;3.55;;;;;;;6.37;100.00;102486.94;5051557;28;20420;-74
2022/02/23 08:51:30;;;;;;;15.48;3.40;;;;;;;6.51;100.00;102481.63;5052375;28;20029;-76
2022/02/23 08:53:56;;;;;;;18.85;4.47;;;;;;;6.75;100.00;102491.25;5052186;28;20104;-73
2022/02/23 08:56:22;;;;;;;16.63;2.95;;;;;;;7.39;98.87;102494.53;5052441;28;20063;-74
2022/02/23 08:58:47;;;;;;;18.75;3.58;;;;;;;8.76;92.44;102489.13;5052452;28;20036;-73
2022/02/23 09:01:12;;;;;;;16.45;3.10;;;;;;;10.07;84.24;102495.31;5052364;28;20017;-73
2022/02/23 09:03:38;;;;;;;21.30;4.20;;;;;;;11.23;78.16;102490.56;5051815;28;20039;-74
2022/02/23 09:06:03;;;;;;;16.67;4.50;;;;;;;12.05;73.29;102485.22;5052595;28;20056;-74
2022/02/23 09:08:28;;;;;;;12.57;4.22;;;;;;;12.52;71.50;102491.09;5043037;28;20103;-76
2022/02/23 09:10:54;;;;;;;14.38;4.28;;;;;;;13.12;68.12;102496.53;5048074;28;20037;-76
2022/02/23 09:13:19;;;;;;;20.80;4.53;;;;;;;13.28;66.52;102491.63;5051575;28;20522;-76
2022/02/23 09:15:45;;;;;;;17.30;3.97;;;;;;;13.28;65.90;102495.13;5052380;28;20036;-75
2022/02/23 09:18:10;;;;;;;14.10;4.22;;;;;;;13.30;65.22;102486.25;5052170;28;20591;-76
2022/02/23 09:20:35;;;;;;;19.80;4.90;;;;;;;13.60;65.15;102479.16;5052022;28;20024;-76
2022/02/23 09:23:01;;;;;;;22.30;4.13;;;;;;;13.71;63.77;102486.81;5051243;28;20029;-73
2022/02/23 09:25:26;;;;;;;15.10;3.97;;;;;;;14.04;63.77;102499.94;5050798;28;20024;-77
2022/02/23 09:27:52;;;;;;;15.13;3.80;;;;;;;13.96;63.59;102486.03;5051789;28;20021;-76
2022/02/23 09:30:17;;;;;;;24.75;6.07;;;;;;;14.30;62.29;102495.56;5052211;28;20021;-76
2022/02/23 09:32:43;;;;;;;19.75;4.43;;;;;;;14.32;61.75;102489.25;5052135;28;20118;-76
2022/02/23 09:35:09;;;;;;;17.00;3.50;;;;;;;14.07;62.47;102492.72;5043088;28;20076;-76
2022/02/23 09:37:35;;;;;;;14.30;3.70;;;;;;;13.94;63.56;102502.06;5043093;28;20040;-75
2022/02/23 09:40:01;;;;;;;25.17;4.72;;;;;;;13.96;62.89;102497.53;5051885;28;20059;-73
2022/02/23 09:42:28;;;;;;;19.45;4.53;;;;;;;13.85;63.24;102491.69;5052388;28;20033;-75
2022/02/23 09:45:00;;;;;;;19.38;3.70;;;;;;;13.96;62.39;102499.34;5050132;28;20025;-75
2022/02/23 09:47:27;;;;;;;;;;;;;;;14.21;63.38;102505.59;5047635;28;20029;-76
2022/02/23 09:49:53;;;;;;;17.70;3.95;;;;;;;14.86;60.83;102484.72;5049222;28;19908;-75
2022/02/23 09:52:23;;;;;;;12.50;3.75;;;;;;;14.93;60.23;102479.16;5050236;28;20025;-76
2022/02/23 09:54:49;;;;;;;18.15;4.28;;;;;;;14.74;59.94;102490.47;5049641;28;20017;-76
2022/02/23 09:57:14;;;;;;;15.63;4.30;;;;;;;14.85;59.67;102500.78;5052216;28;20040;-76
2022/02/23 09:59:40;;;;;;;20.38;5.07;;;;;;;14.88;60.12;102495.31;5033573;28;20037;-76
2022/02/23 10:02:05;;;;;;;18.40;4.22;;;;;;;14.74;58.80;102490.47;5051983;28;20028;-76
2022/02/23 10:04:30;;;;;;;18.05;4.22;;;;;;;14.44;60.39;102501.28;5050492;28;20017;-75
2022/02/23 10:07:02;;;;;;;18.88;4.60;;;;;;;14.46;60.43;102496.75;5047535;28;20136;-74
2022/02/23 10:09:27;;;;;;;17.77;4.45;;;;;;;14.49;59.10;102491.31;5051371;28;20029;-77
2022/02/23 10:11:53;;;;;;;18.52;5.45;;;;;;;14.63;59.35;102488.19;5051754;28;20056;-77
2022/02/23 10:14:29;;;;;;;17.95;4.53;;;;;;;14.33;60.13;102485.63;5051438;28;20096;-75
2022/02/23 10:16:54;;;;;;;18.98;4.72;;;;;;;14.71;59.50;102487.94;5047082;28;20063;-76
2022/02/23 10:19:22;;;;;;;15.18;4.13;;;;;;;14.79;59.14;102477.84;5051019;28;20037;-75
2022/02/23 10:21:55;;;;;;;14.60;4.60;;;;;;;15.20;59.22;102490.56;5051197;28;20037;-74
2022/02/23 10:24:35;;;;;;;15.13;4.25;;;;;;;15.84;55.74;102484.53;5053576;28;20370;-72
2022/02/23 10:27:10;;;;;;;16.05;4.00;;;;;;;15.60;56.04;102474.81;5036555;28;20040;-75
2022/02/23 10:29:48;;;;;;;13.57;3.25;;;;;;;15.71;56.10;102500.13;5054677;28;20100;-73
2022/02/23 10:32:15;;;;;;;14.55;3.53;;;;;;;16.48;53.51;102484.53;5044464;28;20465;-76
2022/02/23 10:34:46;;;;;;;15.68;3.92;;;;;;;16.38;50.71;102484.97;5039690;28;20018;-77
2022/02/23 10:37:13;;;;;;;14.35;3.85;;;;;;;16.28;50.52;102488.06;5051259;28;20047;-76
2022/02/23 10:39:41;;;;;;;12.50;3.63;;;;;;;15.70;51.21;102486.84;5054801;28;20078;-76
2022/02/23 10:42:13;;;;;;;13.27;3.67;;;;;;;15.57;51.17;102479.34;5054839;28;20029;-78
2022/02/23 10:44:40;;;;;;;15.25;4.13;;;;;;;15.50;51.12;102485.84;5048954;28;20084;-77
2022/02/23 10:47:07;;;;;;;14.70;3.72;;;;;;;15.37;51.48;102479.25;5034815;28;20517;-77
2022/02/23 10:49:32;;;;;;;21.63;4.38;;;;;;;15.95;50.20;102485.91;5044955;28;20025;-77
2022/02/23 10:52:06;;;;;;;12.68;3.15;;;;;;;16.02;47.92;102484.69;5055065;28;20090;-77
2022/02/23 10:54:34;;;;;;;14.18;3.30;;;;;;;16.38;48.46;102474.25;5053341;28;20472;-74
2022/02/23 10:56:59;;;;;;;11.13;3.50;;;;;;;15.82;48.74;102462.34;5054515;28;20025;-75
2022/02/23 10:59:25;;;;;;;14.95;2.97;;;;;;;15.72;48.26;102477.00;5054811;28;20021;-74
2022/02/23 11:01:54;;;;;;;14.50;3.38;;;;;;;15.78;48.98;102471.41;5043208;28;20167;-76
2022/02/23 11:04:22;;;;;;;12.00;3.38;;;;;;;15.94;48.18;102460.97;5034585;28;20116;-74
2022/02/23 11:06:52;;;;;;;15.43;3.83;;;;;;;15.44;49.19;102471.88;5051315;28;20029;-77
2022/02/23 11:09:17;;;;;;;12.95;3.33;;;;;;;15.66;49.46;102471.91;5054191;28;20591;-75
2022/02/23 11:11:43;;;;;;;14.20;3.45;;;;;;;16.02;48.35;102468.66;5053746;28;20104;-76
2022/02/23 11:14:11;;;;;;;15.13;3.90;;;;;;;16.09;48.39;102467.50;5054763;28;20112;-73
2022/02/23 11:16:37;;;;;;;16.92;3.97;;;;;;;16.42;48.28;102474.13;5053093;28;20094;-75